createdAt,value
2023-04-14T00:00:17.190Z,65.57
2023-04-14T00:02:50.597Z,66.68
2023-04-14T00:05:22.937Z,67.65
2023-04-14T00:10:29.560Z,94.80
2023-04-14T00:13:04.493Z,80.97
2023-04-14T00:15:37.398Z,78.50
2023-04-14T00:18:11.203Z,78.90
2023-04-14T00:20:44.607Z,79.20
2023-04-14T00:23:17.598Z,77.03
2023-04-14T00:25:52.936Z,77.43
2023-04-14T00:28:25.800Z,77.50
2023-04-14T00:30:58.208Z,78.53
2023-04-14T00:33:30.381Z,84.53
2023-04-14T00:36:02.349Z,85.25
2023-04-14T00:38:35.139Z,88.05
2023-04-14T00:41:07.291Z,85.80
2023-04-14T00:43:41.783Z,87.95
2023-04-14T00:46:15.568Z,88.30
2023-04-14T00:48:49.392Z,83.78
2023-04-14T00:51:21.751Z,85.43
2023-04-14T00:53:57.470Z,79.93
2023-04-14T00:56:30.584Z,82.65
2023-04-14T00:59:05.361Z,79.50
2023-04-14T01:01:40.131Z,80.88
2023-04-14T01:04:14.712Z,75.25
2023-04-14T01:06:47.662Z,74.53
2023-04-14T01:09:20.986Z,69.93
2023-04-14T01:11:58.175Z,64.30
2023-04-14T01:14:52.573Z,59.05
2023-04-14T01:17:37.147Z,58.10
2023-04-14T01:20:16.949Z,59.40
2023-04-14T01:23:25.893Z,57.85
2023-04-14T01:26:13.800Z,59.22
2023-04-14T01:28:49.336Z,56.17
2023-04-14T01:31:23.154Z,52.95
2023-04-14T01:34:17.190Z,58.67
2023-04-14T01:37:04.599Z,62.67
2023-04-14T01:39:45.189Z,61.72
2023-04-14T01:42:23.945Z,58.50
2023-04-14T01:45:00.408Z,56.40
2023-04-14T01:47:33.613Z,58.53
2023-04-14T01:50:08.314Z,55.47
2023-04-14T01:52:43.897Z,55.60
2023-04-14T01:55:19.209Z,55.85
2023-04-14T01:57:54.567Z,56.80
2023-04-14T02:00:28.886Z,54.80
2023-04-14T02:03:09.479Z,52.28
2023-04-14T02:05:44.237Z,58.00
2023-04-14T02:08:19.578Z,58.28
2023-04-14T02:10:55.366Z,57.67
2023-04-14T02:13:31.647Z,56.38
2023-04-14T02:16:05.480Z,56.15
2023-04-14T02:18:38.745Z,57.78
2023-04-14T02:21:13.281Z,60.15
2023-04-14T02:23:46.998Z,59.25
2023-04-14T02:26:27.792Z,59.97
2023-04-14T02:29:16.071Z,65.28
2023-04-14T02:31:55.563Z,69.85
2023-04-14T02:34:36.190Z,67.50
2023-04-14T02:37:17.134Z,64.22
2023-04-14T02:40:03.357Z,64.90
2023-04-14T02:42:41.030Z,65.50
2023-04-14T02:45:30.091Z,68.18
2023-04-14T02:48:10.410Z,65.70
2023-04-14T02:50:49.254Z,58.33
2023-04-14T02:53:28.933Z,55.03
2023-04-14T02:56:11.731Z,54.38
2023-04-14T02:58:49.988Z,56.72
2023-04-14T03:01:21.489Z,56.95
2023-04-14T03:03:55.586Z,54.85
2023-04-14T03:06:27.432Z,56.63
2023-04-14T03:09:01.476Z,55.40
2023-04-14T03:11:34.570Z,53.80
2023-04-14T03:14:05.710Z,54.70
2023-04-14T03:16:40.636Z,53.35
2023-04-14T03:19:13.592Z,54.33
2023-04-14T03:21:48.421Z,54.90
2023-04-14T03:24:25.568Z,53.40
2023-04-14T03:27:01.107Z,56.13
2023-04-14T03:29:39.667Z,53.75
2023-04-14T03:32:10.717Z,55.00
2023-04-14T03:34:44.625Z,56.30
2023-04-14T03:37:19.132Z,60.85
2023-04-14T03:39:52.324Z,59.88
2023-04-14T03:42:22.991Z,62.03
2023-04-14T03:44:55.468Z,64.97
2023-04-14T03:47:25.992Z,69.75
2023-04-14T03:49:58.654Z,62.47
2023-04-14T03:52:32.857Z,72.03
2023-04-14T03:55:07.944Z,71.95
2023-04-14T03:57:41.304Z,75.95
2023-04-14T04:00:14.331Z,77.80
2023-04-14T04:02:45.884Z,83.15
2023-04-14T04:05:16.343Z,85.28
2023-04-14T04:07:47.721Z,82.43
2023-04-14T04:10:18.468Z,82.38
2023-04-14T04:12:51.196Z,80.57
2023-04-14T04:15:21.047Z,84.75
2023-04-14T04:17:52.990Z,80.45
2023-04-14T04:20:23.672Z,78.57
2023-04-14T04:22:57.059Z,77.50
2023-04-14T04:25:26.722Z,82.18
2023-04-14T04:28:06.117Z,79.00
2023-04-14T04:30:42.042Z,80.00
2023-04-14T04:33:13.073Z,80.53
2023-04-14T04:35:43.832Z,80.93
2023-04-14T04:38:13.593Z,80.07
2023-04-14T04:40:46.373Z,69.03
2023-04-14T04:43:24.499Z,68.15
2023-04-14T04:46:16.481Z,61.30
2023-04-14T04:48:47.033Z,66.20
2023-04-14T04:51:16.591Z,76.15
2023-04-14T04:53:46.158Z,71.57
2023-04-14T04:56:15.846Z,71.90
2023-04-14T04:58:45.270Z,67.00
2023-04-14T05:01:16.240Z,46.42
2023-04-14T05:03:47.257Z,22.60
2023-04-14T05:06:17.923Z,23.08
2023-04-14T05:08:47.469Z,21.92
2023-04-14T05:11:17.021Z,24.13
2023-04-14T05:13:46.665Z,23.75
2023-04-14T05:16:16.895Z,21.58
2023-04-14T05:18:46.473Z,19.75
2023-04-14T05:21:16.940Z,21.50
2023-04-14T05:23:47.951Z,24.40
2023-04-14T05:28:51.034Z,21.77
2023-04-14T05:31:21.948Z,19.85
2023-04-14T05:33:51.825Z,25.00
2023-04-14T05:36:21.841Z,24.73
2023-04-14T05:38:51.158Z,31.13
2023-04-14T05:41:23.230Z,32.22
2023-04-14T05:43:52.723Z,22.55
2023-04-14T05:46:22.200Z,22.20
2023-04-14T05:48:51.683Z,24.30
2023-04-14T05:52:10.260Z,19.33
2023-04-14T05:54:41.312Z,17.50
2023-04-14T05:57:12.293Z,15.80
2023-04-14T05:59:41.478Z,17.42
2023-04-14T06:02:11.251Z,17.55
2023-04-14T06:04:40.485Z,16.13
2023-04-14T06:07:09.994Z,25.20
2023-04-14T06:09:39.555Z,32.03
2023-04-14T06:12:08.600Z,21.92
2023-04-14T06:14:38.306Z,24.80
2023-04-14T06:17:08.452Z,21.48
2023-04-14T06:19:38.795Z,21.80
2023-04-14T06:22:09.476Z,21.00
2023-04-14T06:24:38.983Z,20.48
2023-04-14T06:27:08.952Z,24.20
2023-04-14T06:29:38.431Z,27.92
2023-04-14T06:32:11.617Z,26.90
2023-04-14T06:34:41.548Z,25.23
2023-04-14T06:37:11.463Z,23.02
2023-04-14T06:39:40.844Z,25.27
2023-04-14T06:42:15.356Z,22.70
2023-04-14T06:44:55.301Z,21.10
2023-04-14T06:47:31.626Z,22.23
2023-04-14T06:50:02.371Z,19.30
2023-04-14T06:52:33.074Z,17.05
2023-04-14T06:55:05.228Z,21.17
2023-04-14T06:57:44.437Z,18.58
2023-04-14T07:00:29.776Z,17.98
2023-04-14T07:03:15.109Z,15.43
2023-04-14T07:06:01.021Z,17.80
2023-04-14T07:08:36.268Z,14.85
2023-04-14T07:11:09.494Z,12.00
2023-04-14T07:13:40.825Z,11.38
2023-04-14T07:16:10.765Z,13.93
2023-04-14T07:18:40.118Z,13.93
2023-04-14T07:21:09.324Z,12.88
2023-04-14T07:23:39.050Z,13.88
2023-04-14T07:26:08.447Z,12.38
2023-04-14T07:28:38.596Z,12.77
2023-04-14T07:31:12.523Z,12.77
2023-04-14T07:33:42.105Z,17.83
2023-04-14T07:36:11.914Z,14.48
2023-04-14T07:38:41.861Z,11.80
2023-04-14T07:41:11.477Z,54.45
2023-04-14T07:43:41.674Z,23.90
2023-04-14T07:46:10.891Z,18.08
2023-04-14T07:48:47.877Z,13.13
2023-04-14T07:51:18.609Z,27.88
2023-04-14T07:53:48.333Z,28.23
2023-04-14T07:56:17.816Z,15.60
2023-04-14T07:58:47.533Z,13.25
2023-04-14T08:01:21.402Z,14.38
2023-04-14T08:03:51.961Z,14.50
2023-04-14T08:06:22.329Z,14.88
2023-04-14T08:08:53.141Z,13.02
2023-04-14T08:11:23.083Z,12.02
2023-04-14T08:13:53.947Z,11.00
2023-04-14T08:16:24.088Z,11.77
2023-04-14T08:18:55.833Z,12.60
2023-04-14T08:21:29.121Z,12.68
2023-04-14T08:23:58.573Z,10.33
2023-04-14T08:26:30.854Z,9.80
2023-04-14T08:29:00.497Z,7.88
2023-04-14T08:31:30.375Z,6.85
2023-04-14T08:33:59.399Z,6.70
2023-04-14T08:36:29.621Z,6.88
2023-04-14T08:39:01.409Z,7.03
2023-04-14T08:41:35.809Z,6.15
2023-04-14T08:44:05.064Z,9.43
2023-04-14T08:46:36.033Z,8.63
2023-04-14T08:49:08.089Z,7.23
2023-04-14T08:51:44.196Z,6.10
2023-04-14T08:54:14.463Z,6.07
2023-04-14T08:56:44.972Z,6.70
2023-04-14T08:59:14.449Z,6.18
2023-04-14T09:01:44.007Z,5.72
2023-04-14T09:04:15.603Z,7.28
2023-04-14T09:06:45.032Z,5.95
2023-04-14T09:09:15.271Z,6.57
2023-04-14T09:11:46.254Z,6.47
2023-04-14T09:14:16.884Z,4.93
2023-04-14T09:16:49.784Z,6.25
2023-04-14T09:19:19.417Z,7.45
2023-04-14T09:21:51.917Z,8.35
2023-04-14T09:24:32.417Z,7.60
2023-04-14T09:32:35.101Z,13.77
2023-04-14T09:35:04.345Z,13.73
2023-04-14T09:37:47.584Z,11.18
2023-04-14T09:40:30.241Z,6.63
2023-04-14T09:43:00.126Z,7.40
2023-04-14T09:45:46.194Z,6.60
2023-04-14T09:48:15.867Z,6.65
2023-04-14T09:51:07.657Z,6.50
2023-04-14T09:53:42.367Z,5.90
2023-04-14T09:56:13.580Z,8.70
2023-04-14T09:58:45.782Z,5.03
2023-04-14T10:01:17.833Z,5.93
2023-04-14T10:03:51.229Z,7.43
2023-04-14T10:06:24.718Z,7.88
2023-04-14T10:08:57.015Z,6.13
2023-04-14T10:11:28.596Z,6.30
2023-04-14T10:14:00.393Z,5.18
2023-04-14T10:16:30.456Z,4.53
2023-04-14T10:19:00.480Z,4.07
2023-04-14T10:21:30.548Z,5.80
2023-04-14T10:24:00.007Z,5.93
2023-04-14T10:26:31.150Z,6.38
2023-04-14T10:29:03.345Z,5.50
2023-04-14T10:31:39.916Z,6.22
2023-04-14T10:34:10.338Z,11.25
2023-04-14T10:36:40.084Z,7.10
2023-04-14T10:39:11.131Z,6.35
2023-04-14T10:41:50.919Z,5.53
2023-04-14T10:44:33.785Z,11.10
2023-04-14T10:47:06.072Z,10.15
2023-04-14T10:49:37.917Z,7.43
2023-04-14T10:55:01.873Z,9.88
2023-04-14T10:57:32.013Z,8.70
2023-04-14T11:00:01.667Z,8.00
2023-04-14T11:02:32.099Z,10.13
2023-04-14T11:05:09.677Z,7.90
2023-04-14T11:07:52.794Z,11.18
2023-04-14T11:10:22.332Z,9.32
2023-04-14T11:13:02.653Z,11.00
2023-04-14T11:15:49.146Z,8.57
2023-04-14T11:18:35.670Z,7.72
2023-04-14T11:21:08.868Z,11.73
2023-04-14T11:23:39.635Z,9.45
2023-04-14T11:26:11.173Z,16.40
2023-04-14T11:28:43.649Z,9.65
2023-04-14T11:31:16.097Z,11.90
2023-04-14T11:33:46.134Z,9.38
2023-04-14T11:36:15.327Z,10.60
2023-04-14T11:38:44.818Z,10.65
2023-04-14T11:41:16.914Z,8.65
2023-04-14T11:43:47.871Z,9.82
2023-04-14T11:46:17.434Z,11.65
2023-04-14T11:48:46.741Z,8.80
2023-04-14T11:51:16.350Z,12.68
2023-04-14T11:53:45.405Z,12.43
2023-04-14T11:56:15.941Z,10.02
2023-04-14T11:58:45.233Z,7.88
2023-04-14T12:01:15.814Z,8.52
2023-04-14T12:03:45.486Z,9.30
2023-04-14T12:06:14.681Z,8.15
2023-04-14T12:08:44.762Z,8.38
2023-04-14T12:11:17.539Z,8.20
2023-04-14T12:13:48.612Z,8.40
2023-04-14T12:16:18.651Z,9.18
2023-04-14T12:18:48.090Z,15.15
2023-04-14T12:21:21.093Z,11.48
2023-04-14T12:23:50.974Z,11.98
2023-04-14T12:26:21.775Z,12.85
2023-04-14T12:28:59.019Z,10.68
2023-04-14T12:31:31.422Z,10.98
2023-04-14T12:34:04.451Z,13.75
2023-04-14T12:36:48.785Z,14.68
2023-04-14T12:39:20.689Z,14.57
2023-04-14T12:41:50.593Z,17.42
2023-04-14T12:44:21.552Z,19.38
2023-04-14T12:46:52.820Z,14.20
2023-04-14T12:49:39.333Z,13.50
2023-04-14T12:52:09.323Z,10.70
2023-04-14T12:54:54.608Z,9.80
2023-04-14T12:57:23.982Z,10.25
2023-04-14T12:59:53.332Z,6.55
2023-04-14T13:02:23.680Z,6.05
2023-04-14T13:04:52.886Z,6.53
2023-04-14T13:07:22.644Z,5.78
2023-04-14T13:09:53.350Z,5.97
2023-04-14T13:12:23.203Z,5.72
2023-04-14T13:14:54.197Z,7.03
2023-04-14T13:17:23.535Z,5.50
2023-04-14T13:19:54.023Z,6.57
2023-04-14T13:22:23.083Z,7.78
2023-04-14T13:24:52.622Z,9.35
2023-04-14T13:27:21.816Z,10.48
2023-04-14T13:29:51.057Z,7.90
2023-04-14T13:32:20.289Z,9.30
2023-04-14T13:34:50.744Z,8.27
2023-04-14T13:37:20.664Z,9.52
2023-04-14T13:39:49.713Z,9.00
2023-04-14T13:42:19.437Z,8.30
2023-04-14T13:44:49.204Z,8.70
2023-04-14T13:47:20.062Z,7.28
2023-04-14T13:49:49.251Z,7.03
2023-04-14T13:52:18.427Z,6.60
2023-04-14T13:54:47.708Z,7.55
2023-04-14T13:57:17.324Z,7.50
2023-04-14T13:59:46.436Z,6.57
2023-04-14T14:02:15.583Z,7.95
2023-04-14T14:04:45.153Z,8.07
2023-04-14T14:07:14.366Z,9.30
2023-04-14T14:09:45.493Z,8.30
2023-04-14T14:12:14.573Z,8.17
2023-04-14T14:14:43.652Z,10.40
2023-04-14T14:17:13.280Z,9.70
2023-04-14T14:19:42.377Z,11.00
2023-04-14T14:22:11.706Z,11.15
2023-04-14T14:24:42.176Z,16.52
2023-04-14T14:27:11.515Z,15.38
2023-04-14T14:29:40.609Z,16.98
2023-04-14T14:32:10.101Z,21.27
2023-04-14T14:34:40.038Z,25.35
2023-04-14T14:37:09.456Z,22.05
2023-04-14T14:39:38.404Z,21.15
2023-04-14T14:42:08.466Z,22.27
2023-04-14T14:44:39.745Z,23.90
2023-04-14T14:47:09.323Z,22.33
2023-04-14T14:49:41.354Z,21.85
2023-04-14T14:52:18.546Z,24.63
2023-04-14T14:54:47.267Z,23.63
2023-04-14T14:57:16.352Z,26.15
2023-04-14T14:59:45.623Z,25.23
2023-04-14T15:02:14.882Z,27.80
2023-04-14T15:04:44.092Z,28.30
2023-04-14T15:07:14.202Z,31.98
2023-04-14T15:09:43.304Z,33.70
2023-04-14T15:12:12.475Z,31.27
2023-04-14T15:14:41.615Z,34.97
2023-04-14T15:17:10.979Z,35.97
2023-04-14T15:19:41.431Z,36.75
2023-04-14T15:22:11.308Z,35.72
2023-04-14T15:24:40.363Z,47.78
2023-04-14T15:27:09.655Z,49.60
2023-04-14T15:29:38.862Z,53.55
2023-04-14T15:32:08.436Z,54.88
2023-04-14T15:34:37.538Z,59.05
2023-04-14T15:37:07.038Z,65.18
2023-04-14T15:39:38.295Z,67.38
2023-04-14T15:42:07.353Z,64.35
2023-04-14T15:44:36.370Z,66.57
2023-04-14T15:47:06.301Z,68.93
2023-04-14T15:49:35.507Z,64.97
2023-04-14T15:52:04.503Z,67.38
2023-04-14T15:54:35.205Z,63.13
2023-04-14T15:57:05.212Z,65.30
2023-04-14T15:59:34.371Z,63.65
2023-04-14T16:02:04.471Z,61.47
2023-04-14T16:04:33.570Z,57.35
2023-04-14T16:07:03.619Z,58.88
2023-04-14T16:09:33.247Z,58.95
2023-04-14T16:12:02.369Z,60.15
2023-04-14T16:14:36.222Z,58.40
2023-04-14T16:17:05.283Z,62.00
2023-04-14T16:19:34.338Z,66.82
2023-04-14T16:22:03.950Z,63.03
2023-04-14T16:24:33.108Z,64.57
2023-04-14T16:27:02.468Z,64.68
2023-04-14T16:29:32.400Z,65.75
2023-04-14T16:32:01.298Z,64.25
2023-04-14T16:34:30.526Z,65.90
2023-04-14T16:36:59.796Z,65.45
2023-04-14T16:39:29.882Z,58.40
2023-04-14T16:41:59.716Z,61.63
2023-04-14T16:44:28.582Z,58.67
2023-04-14T16:46:57.877Z,58.58
2023-04-14T16:49:27.118Z,56.63
2023-04-14T16:51:58.734Z,54.85
2023-04-14T16:54:29.885Z,53.38
2023-04-14T16:56:59.502Z,49.40
2023-04-14T16:59:28.480Z,53.47
2023-04-14T17:01:57.868Z,49.42
2023-04-14T17:04:27.849Z,50.45
2023-04-14T17:06:57.698Z,48.35
2023-04-14T17:09:26.749Z,49.72
2023-04-14T17:11:57.807Z,49.97
2023-04-14T17:14:27.134Z,48.38
2023-04-14T17:16:56.230Z,50.17
2023-04-14T17:19:26.114Z,50.45
2023-04-14T17:21:55.105Z,50.50
2023-04-14T17:24:24.273Z,52.85
2023-04-14T17:26:53.530Z,53.15
2023-04-14T17:29:22.802Z,54.45
2023-04-14T17:31:51.911Z,53.15
2023-04-14T17:34:21.850Z,54.03
2023-04-14T17:36:51.867Z,52.95
2023-04-14T17:39:27.528Z,55.38
2023-04-14T17:41:58.277Z,55.47
2023-04-14T17:44:37.390Z,52.67
2023-04-14T17:47:13.867Z,53.42
2023-04-14T17:49:46.038Z,55.97
2023-04-14T17:52:22.890Z,58.15
2023-04-14T17:54:52.892Z,55.92
2023-04-14T17:57:22.081Z,55.67
2023-04-14T17:59:50.963Z,57.00
2023-04-14T18:02:20.825Z,54.47
2023-04-14T18:04:49.813Z,54.55
2023-04-14T18:07:19.835Z,53.00
2023-04-14T18:09:49.237Z,51.17
2023-04-14T18:12:18.095Z,50.00
2023-04-14T18:14:47.545Z,50.05
2023-04-14T18:17:17.028Z,52.92
2023-04-14T18:19:46.716Z,52.08
2023-04-14T18:22:16.108Z,51.00
2023-04-14T18:29:50.517Z,258.50
2023-04-14T18:32:19.834Z,74.85
2023-04-14T18:34:49.098Z,65.68
2023-04-14T18:37:18.239Z,55.97
2023-04-14T18:39:47.561Z,54.30
2023-04-14T18:42:16.616Z,58.75
2023-04-14T18:44:45.907Z,55.10
2023-04-14T18:47:15.164Z,53.90
2023-04-14T18:49:44.539Z,53.30
2023-04-14T18:52:14.019Z,53.50
2023-04-14T18:54:42.907Z,56.42
2023-04-14T18:57:12.676Z,54.22
2023-04-14T18:59:41.969Z,53.40
2023-04-14T19:02:14.335Z,57.35
2023-04-14T19:04:43.847Z,61.15
2023-04-14T19:07:13.001Z,61.00
2023-04-14T19:09:42.859Z,63.25
2023-04-14T19:12:21.734Z,61.08
2023-04-14T19:14:56.734Z,61.92
2023-04-14T19:17:25.843Z,58.58
2023-04-14T19:19:54.779Z,61.72
2023-04-14T19:22:24.091Z,62.88
2023-04-14T19:24:53.432Z,58.85
2023-04-14T19:27:22.563Z,55.10
2023-04-14T19:29:51.859Z,56.63
2023-04-14T19:32:21.283Z,57.95
2023-04-14T19:34:50.486Z,56.85
2023-04-14T19:37:19.641Z,57.35
2023-04-14T19:39:48.676Z,58.28
2023-04-14T19:42:18.188Z,56.17
2023-04-14T19:44:47.710Z,56.33
2023-04-14T19:47:16.700Z,55.05
2023-04-14T19:49:46.092Z,57.25
2023-04-14T19:52:15.174Z,56.20
2023-04-14T19:54:44.497Z,56.00
2023-04-14T19:57:13.637Z,56.90
2023-04-14T19:59:43.706Z,58.00
2023-04-14T20:02:14.483Z,59.15
2023-04-14T20:04:46.790Z,60.75
2023-04-14T20:07:18.104Z,60.75
2023-04-14T20:09:48.498Z,62.83
2023-04-14T20:12:19.284Z,60.78
2023-04-14T20:14:49.785Z,61.97
2023-04-14T20:17:22.845Z,60.92
2023-04-14T20:19:54.037Z,59.88
2023-04-14T20:22:25.264Z,61.85
2023-04-14T20:24:56.326Z,61.22
2023-04-14T20:27:27.013Z,59.80
2023-04-14T20:29:57.282Z,65.70
2023-04-14T20:32:30.458Z,64.63
2023-04-14T20:35:03.417Z,69.95
2023-04-14T20:37:35.929Z,71.40
2023-04-14T20:40:10.179Z,84.63
2023-04-14T20:42:42.682Z,99.95
2023-04-14T20:47:46.508Z,96.35
2023-04-14T20:50:19.698Z,115.78
2023-04-14T20:52:52.998Z,124.93
2023-04-14T20:55:25.584Z,121.35
2023-04-14T20:57:57.387Z,121.25
2023-04-14T21:00:29.312Z,118.65
2023-04-14T21:03:03.819Z,115.55
2023-04-14T21:05:36.878Z,112.15
2023-04-14T21:08:10.137Z,97.53
2023-04-14T21:11:15.241Z,92.05
2023-04-14T21:15:29.116Z,89.40
2023-04-14T21:16:28.841Z,78.50
2023-04-14T21:21:35.399Z,72.65
2023-04-14T21:24:07.492Z,76.10
2023-04-14T21:26:39.458Z,77.45
2023-04-14T21:29:13.456Z,78.90
2023-04-14T21:31:45.313Z,79.63
2023-04-14T21:34:19.449Z,76.97
2023-04-14T21:36:51.820Z,72.07
2023-04-14T21:41:56.488Z,69.30
2023-04-14T21:44:27.967Z,77.72
2023-04-14T21:47:01.380Z,79.70
2023-04-14T21:49:33.842Z,75.45
2023-04-14T21:52:05.064Z,80.18
2023-04-14T21:54:37.460Z,77.18
2023-04-14T21:57:11.755Z,80.63
2023-04-14T21:59:44.138Z,77.70
2023-04-14T22:02:16.716Z,78.25
2023-04-14T22:04:48.807Z,76.82
2023-04-14T22:07:20.825Z,72.65
2023-04-14T22:09:53.182Z,63.97
2023-04-14T22:12:25.338Z,59.97
2023-04-14T22:17:30.915Z,62.88
2023-04-14T22:22:33.581Z,50.30
2023-04-14T22:25:07.781Z,46.67
2023-04-14T22:27:40.349Z,43.97
2023-04-14T22:30:12.630Z,39.55
2023-04-14T22:32:44.708Z,39.08
2023-04-14T22:35:19.155Z,36.35
2023-04-14T22:37:51.426Z,36.38
2023-04-14T22:40:23.722Z,38.28
2023-04-14T22:42:57.189Z,29.88
2023-04-14T22:45:28.908Z,28.70
2023-04-14T22:48:00.858Z,24.70
2023-04-14T22:50:37.018Z,23.25
2023-04-14T22:53:09.677Z,23.38
2023-04-14T22:55:42.967Z,21.83
2023-04-14T22:58:19.487Z,21.23
2023-04-14T23:00:51.842Z,20.92
2023-04-14T23:03:25.152Z,20.70
2023-04-14T23:05:58.285Z,20.00
2023-04-14T23:08:30.867Z,18.15
2023-04-14T23:11:03.795Z,18.02
2023-04-14T23:13:38.196Z,18.75
2023-04-14T23:16:12.582Z,18.77
2023-04-14T23:18:45.453Z,19.25
2023-04-14T23:21:18.189Z,18.35
2023-04-14T23:23:51.338Z,18.00
2023-04-14T23:26:24.654Z,17.75
2023-04-14T23:28:56.728Z,17.65
2023-04-14T23:31:33.116Z,18.30
2023-04-14T23:34:04.476Z,17.15
2023-04-14T23:36:37.709Z,17.15
2023-04-14T23:39:10.223Z,17.77
2023-04-14T23:41:42.744Z,17.52
2023-04-14T23:46:46.398Z,16.75
2023-04-14T23:49:23.873Z,17.08
2023-04-14T23:52:06.592Z,19.58
2023-04-14T23:54:39.870Z,17.27
2023-04-14T23:57:11.995Z,18.40
2023-04-14T23:59:44.108Z,17.55
